Time;durP1;ratioP1;P1;durP2;ratioP2;P2;SDS_P1;SDS_P2;PMS_P1;PMS_P2;Temp;Humidity;BMP_temperature;BMP_pressure;BME280_temperature;BME280_humidity;BME280_pressure;Samples;Min_cycle;Max_cycle;Signal;HPM_P1;HPM_P2
2021/07/10 00:02:31;;;;;;;5.00;3.78;;;23.00;74.50;;;;;;5158281;28;20449;-63
2021/07/10 00:05:04;;;;;;;7.28;3.58;;;23.00;74.40;;;;;;5157420;28;20050;-64
2021/07/10 00:07:37;;;;;;;7.47;3.67;;;23.00;74.40;;;;;;5154533;28;20615;-63
2021/07/10 00:10:12;;;;;;;7.35;4.05;;;23.00;74.40;;;;;;5158172;28;20062;-66
2021/07/10 00:12:45;;;;;;;6.35;3.65;;;23.00;74.40;;;;;;5157715;28;20093;-63
2021/07/10 00:15:20;;;;;;;5.63;3.70;;;23.00;74.40;;;;;;5161163;28;20414;-64
2021/07/10 00:17:52;;;;;;;8.65;3.83;;;23.00;74.30;;;;;;5159312;28;20289;-64
2021/07/10 00:20:25;;;;;;;6.28;3.67;;;23.00;74.30;;;;;;5153840;28;20046;-65
2021/07/10 00:22:57;;;;;;;5.20;3.53;;;23.00;74.30;;;;;;5159738;28;20050;-63
2021/07/10 00:25:30;;;;;;;5.20;3.42;;;22.90;74.30;;;;;;5173303;28;20057;-63
2021/07/10 00:28:03;;;;;;;4.55;3.42;;;22.90;74.30;;;;;;5158196;28;20042;-65
2021/07/10 00:30:36;;;;;;;8.40;3.65;;;23.00;74.30;;;;;;5160290;28;20457;-64
2021/07/10 00:33:08;;;;;;;7.75;4.00;;;23.00;74.30;;;;;;5160002;28;20049;-63
2021/07/10 00:35:41;;;;;;;5.65;3.40;;;22.90;74.30;;;;;;5160236;28;20049;-64
2021/07/10 00:38:13;;;;;;;6.47;3.67;;;22.90;74.20;;;;;;5158851;28;20065;-63
2021/07/10 00:40:46;;;;;;;11.32;3.90;;;22.90;74.20;;;;;;5159656;28;20592;-64
2021/07/10 00:43:18;;;;;;;4.40;2.92;;;22.90;74.20;;;;;;5163892;28;20045;-63
2021/07/10 00:45:51;;;;;;;9.75;3.33;;;22.90;74.10;;;;;;5161601;28;20116;-64
2021/07/10 00:48:26;;;;;;;6.07;2.80;;;22.90;74.20;;;;;;5160932;28;20050;-63
2021/07/10 00:50:58;;;;;;;6.70;2.90;;;22.90;74.10;;;;;;5161017;28;20064;-65
2021/07/10 00:53:31;;;;;;;5.03;2.67;;;22.90;74.10;;;;;;5161594;28;20471;-64
2021/07/10 00:56:05;;;;;;;6.87;3.00;;;22.90;74.10;;;;;;5158627;28;20046;-64
2021/07/10 00:58:37;;;;;;;5.47;3.13;;;22.90;74.10;;;;;;5159181;28;20289;-64
2021/07/10 01:01:10;;;;;;;7.47;3.60;;;22.90;74.10;;;;;;5162043;28;20045;-65
2021/07/10 01:03:46;;;;;;;3.17;2.83;;;22.90;74.00;;;;;;5164149;28;20545;-64
2021/07/10 01:06:18;;;;;;;4.75;2.88;;;22.90;74.00;;;;;;5156809;28;20514;-65
2021/07/10 01:08:51;;;;;;;4.53;2.35;;;22.90;74.00;;;;;;5161957;28;20046;-64
2021/07/10 01:11:23;;;;;;;4.30;2.90;;;22.90;74.00;;;;;;5159227;28;20077;-65
2021/07/10 01:13:56;;;;;;;5.63;2.70;;;22.90;73.90;;;;;;5161407;28;20049;-64
2021/07/10 01:16:29;;;;;;;5.77;2.60;;;22.90;73.90;;;;;;5155127;28;20057;-64
2021/07/10 01:19:02;;;;;;;4.72;2.75;;;22.90;73.90;;;;;;5161786;28;20422;-64
2021/07/10 01:21:35;;;;;;;3.72;2.63;;;22.90;73.90;;;;;;5156153;28;20433;-65
2021/07/10 01:24:07;;;;;;;3.22;2.40;;;22.80;73.80;;;;;;5160767;28;20069;-64
2021/07/10 01:26:40;;;;;;;6.45;2.58;;;22.90;73.90;;;;;;5156860;28;20046;-63
2021/07/10 01:29:13;;;;;;;4.10;2.30;;;22.90;73.80;;;;;;5159703;28;20050;-64
2021/07/10 01:31:46;;;;;;;6.07;2.15;;;22.90;73.80;;;;;;5170119;28;20307;-65
2021/07/10 01:34:18;;;;;;;4.05;2.58;;;22.80;73.70;;;;;;5159374;28;20061;-65
2021/07/10 01:36:51;;;;;;;5.47;2.50;;;22.80;73.70;;;;;;5162245;28;20100;-65
2021/07/10 01:39:24;;;;;;;7.90;2.77;;;22.80;73.70;;;;;;5166363;28;20052;-64
2021/07/10 01:41:56;;;;;;;5.65;2.40;;;22.80;73.70;;;;;;5163668;28;20046;-65
2021/07/10 01:44:28;;;;;;;4.20;2.30;;;22.80;73.70;;;;;;5163858;28;20522;-64
2021/07/10 01:47:01;;;;;;;3.08;2.60;;;22.90;73.70;;;;;;5162608;28;20061;-65
2021/07/10 01:49:34;;;;;;;3.92;2.72;;;22.80;73.60;;;;;;5163630;28;20058;-63
2021/07/10 01:52:06;;;;;;;6.63;2.70;;;22.80;73.60;;;;;;5165713;28;20057;-65
2021/07/10 01:54:39;;;;;;;3.20;2.08;;;22.80;73.60;;;;;;5162193;28;20050;-63
2021/07/10 01:57:11;;;;;;;4.40;2.55;;;22.80;73.60;;;;;;5160502;28;20048;-65
2021/07/10 01:59:44;;;;;;;3.35;2.40;;;22.80;73.50;;;;;;5160386;28;20061;-64
2021/07/10 02:02:16;;;;;;;2.60;2.38;;;22.80;74.10;;;;;;5163131;28;20046;-65
2021/07/10 02:04:51;;;;;;;6.13;2.17;;;22.80;73.40;;;;;;5161553;28;20520;-63
2021/07/10 02:07:24;;;;;;;2.70;2.17;;;22.80;73.40;;;;;;5163532;28;20049;-64
2021/07/10 02:09:56;;;;;;;5.30;2.95;;;22.80;73.40;;;;;;5163010;28;21402;-65
2021/07/10 02:12:28;;;;;;;3.92;2.45;;;22.80;73.30;;;;;;5161413;28;20156;-65
2021/07/10 02:15:04;;;;;;;6.90;2.35;;;22.80;73.30;;;;;;5158583;28;20418;-64
2021/07/10 02:17:36;;;;;;;3.17;2.38;;;22.80;73.20;;;;;;5159279;28;20740;-64
2021/07/10 02:20:11;;;;;;;2.78;2.00;;;22.80;73.30;;;;;;5172122;28;20060;-66
2021/07/10 02:22:44;;;;;;;2.70;2.10;;;22.80;73.30;;;;;;5172370;28;20045;-65
2021/07/10 02:25:18;;;;;;;3.93;2.43;;;22.80;73.30;;;;;;5157091;28;20562;-64
2021/07/10 02:27:52;;;;;;;3.47;2.42;;;22.80;73.30;;;;;;5162290;28;20768;-63
2021/07/10 02:30:26;;;;;;;5.95;2.13;;;22.80;73.20;;;;;;5156209;28;20049;-65
2021/07/10 02:33:00;;;;;;;6.70;2.30;;;22.80;73.30;;;;;;5162364;28;20555;-64
2021/07/10 02:35:33;;;;;;;;;;;22.80;73.20;;;;;;5159054;28;20050;-64
2021/07/10 02:38:06;;;;;;;3.15;2.50;;;22.70;73.20;;;;;;5166338;28;20381;-63
2021/07/10 02:40:38;;;;;;;6.10;2.70;;;22.70;73.20;;;;;;5162668;28;20048;-65
2021/07/10 02:43:11;;;;;;;2.92;2.13;;;22.70;73.20;;;;;;5165018;28;20041;-64
2021/07/10 02:45:44;;;;;;;3.65;2.15;;;22.70;73.00;;;;;;5164700;28;20409;-64
2021/07/10 02:48:16;;;;;;;4.05;2.45;;;22.70;73.00;;;;;;5167837;28;20485;-64
2021/07/10 02:50:49;;;;;;;4.47;2.45;;;22.70;72.90;;;;;;5164618;28;20054;-65
2021/07/10 02:53:22;;;;;;;3.93;2.50;;;22.70;73.00;;;;;;5167246;28;20038;-65
2021/07/10 02:55:54;;;;;;;3.20;2.35;;;22.70;72.90;;;;;;5171680;28;20315;-65
2021/07/10 02:58:26;;;;;;;2.50;2.10;;;22.70;72.80;;;;;;5171635;28;20054;-65
2021/07/10 03:00:59;;;;;;;2.60;1.88;;;22.70;72.80;;;;;;5163133;28;20389;-64
2021/07/10 03:03:32;;;;;;;4.97;2.20;;;22.70;72.70;;;;;;5159723;28;20046;-65
2021/07/10 03:06:04;;;;;;;5.60;2.40;;;22.70;72.60;;;;;;5162322;28;20414;-64
2021/07/10 03:08:36;;;;;;;3.53;2.22;;;22.70;72.60;;;;;;5165101;28;20641;-65
2021/07/10 03:11:10;;;;;;;3.20;2.47;;;22.70;72.60;;;;;;5165846;28;20050;-64
2021/07/10 03:13:43;;;;;;;3.40;2.03;;;22.70;72.70;;;;;;5165082;28;20677;-64
2021/07/10 03:16:16;;;;;;;3.63;2.17;;;22.70;72.60;;;;;;5165917;28;20042;-64
2021/07/10 03:18:49;;;;;;;6.03;2.17;;;22.70;72.60;;;;;;5166959;28;20069;-64
2021/07/10 03:21:21;;;;;;;3.88;2.25;;;22.70;72.60;;;;;;5164326;28;20490;-65
2021/07/10 03:23:54;;;;;;;4.20;2.22;;;22.70;72.60;;;;;;5168349;28;20046;-65
2021/07/10 03:26:26;;;;;;;2.72;1.83;;;22.70;72.50;;;;;;5168813;28;20053;-64
2021/07/10 03:28:59;;;;;;;3.72;2.30;;;22.70;72.50;;;;;;5169063;28;20657;-64
2021/07/10 03:31:31;;;;;;;5.05;1.77;;;22.70;72.50;;;;;;5170242;28;20057;-64
2021/07/10 03:34:04;;;;;;;3.30;1.92;;;22.70;72.40;;;;;;5167433;28;20049;-65
2021/07/10 03:36:36;;;;;;;4.53;2.10;;;22.70;72.40;;;;;;5169995;28;20042;-64
2021/07/10 03:39:08;;;;;;;4.18;2.20;;;22.70;72.30;;;;;;5169054;28;20069;-65
2021/07/10 03:41:41;;;;;;;2.95;2.20;;;22.70;72.40;;;;;;5180126;28;20064;-64
2021/07/10 03:44:22;;;;;;;3.33;2.00;;;22.70;72.30;;;;;;5166178;28;20388;-64
2021/07/10 03:46:54;;;;;;;2.40;1.98;;;22.70;72.30;;;;;;5167313;28;20042;-65
2021/07/10 03:49:27;;;;;;;3.38;2.53;;;22.70;72.20;;;;;;5163821;28;20058;-64
2021/07/10 03:52:00;;;;;;;7.22;1.88;;;22.70;72.10;;;;;;5167452;28;20057;-65
2021/07/10 03:54:32;;;;;;;2.47;2.27;;;22.70;72.10;;;;;;5162110;28;20053;-64
2021/07/10 03:57:06;;;;;;;3.50;1.88;;;22.60;72.00;;;;;;5168067;28;20050;-64
2021/07/10 03:59:38;;;;;;;2.50;1.75;;;22.60;72.70;;;;;;5166149;28;20421;-64
2021/07/10 04:02:10;;;;;;;2.92;1.92;;;22.60;72.00;;;;;;5164802;28;20045;-63
2021/07/10 04:04:43;;;;;;;3.50;1.80;;;22.60;71.90;;;;;;5150510;28;20041;-64
2021/07/10 04:07:16;;;;;;;2.30;1.80;;;22.60;71.90;;;;;;5167119;28;20056;-64
2021/07/10 04:09:48;;;;;;;3.85;2.20;;;22.70;72.00;;;;;;5166842;28;20061;-64
2021/07/10 04:12:20;;;;;;;2.03;1.60;;;22.60;71.80;;;;;;5167913;28;20386;-64
2021/07/10 04:14:58;;;;;;;2.85;1.40;;;22.60;71.80;;;;;;5163300;28;20057;-64
2021/07/10 04:17:32;;;;;;;2.63;1.80;;;22.60;71.80;;;;;;5165906;28;20409;-64
2021/07/10 04:20:06;;;;;;;4.32;1.83;;;22.60;71.80;;;;;;5167578;28;20049;-66
2021/07/10 04:22:39;;;;;;;4.30;1.95;;;22.60;71.70;;;;;;5165937;28;20588;-64
2021/07/10 04:25:15;;;;;;;3.08;1.90;;;22.60;71.70;;;;;;5166323;28;20055;-64
2021/07/10 04:27:48;;;;;;;3.95;2.17;;;22.60;71.70;;;;;;5164505;28;20049;-64
2021/07/10 04:30:21;;;;;;;3.92;2.08;;;22.60;71.70;;;;;;5165181;28;20059;-66
2021/07/10 04:32:53;;;;;;;2.28;1.88;;;22.60;71.60;;;;;;5167656;28;20399;-64
2021/07/10 04:35:26;;;;;;;1.90;1.80;;;22.60;71.60;;;;;;5164703;28;20065;-64
2021/07/10 04:37:59;;;;;;;5.70;2.33;;;22.60;71.60;;;;;;5166638;28;20057;-63
2021/07/10 04:40:31;;;;;;;1.70;1.60;;;22.60;71.60;;;;;;5165454;28;20050;-63
2021/07/10 04:43:04;;;;;;;2.28;1.65;;;22.60;71.60;;;;;;5164957;28;20038;-64
2021/07/10 04:45:37;;;;;;;3.13;1.97;;;22.60;71.60;;;;;;5163706;28;20050;-64
2021/07/10 04:48:09;;;;;;;4.60;2.10;;;22.60;71.60;;;;;;5166174;28;20052;-64
2021/07/10 04:50:42;;;;;;;2.03;1.80;;;22.60;71.60;;;;;;5165982;28;20050;-64
2021/07/10 04:53:15;;;;;;;3.83;2.00;;;22.60;71.60;;;;;;5162759;28;20537;-65
2021/07/10 04:55:47;;;;;;;3.95;2.35;;;22.60;71.60;;;;;;5165914;28;20060;-64
2021/07/10 04:58:20;;;;;;;4.72;2.22;;;22.60;71.60;;;;;;5165324;28;20069;-64
2021/07/10 05:00:52;;;;;;;2.70;1.80;;;22.60;71.50;;;;;;5162330;28;20053;-64
2021/07/10 05:03:24;;;;;;;2.97;1.90;;;22.60;71.50;;;;;;5165626;28;20050;-64
2021/07/10 05:05:57;;;;;;;2.42;1.70;;;22.60;71.60;;;;;;5164192;28;20042;-64
2021/07/10 05:08:30;;;;;;;3.45;1.95;;;22.60;71.60;;;;;;5165083;28;20045;-65
2021/07/10 05:11:03;;;;;;;5.63;2.20;;;22.60;71.50;;;;;;5165553;28;20058;-65
2021/07/10 05:13:35;;;;;;;8.20;2.03;;;22.60;71.50;;;;;;5165310;28;20608;-63
2021/07/10 05:16:08;;;;;;;3.03;2.00;;;22.60;71.50;;;;;;5164463;28;20050;-64
2021/07/10 05:18:40;;;;;;;4.30;1.90;;;22.60;71.40;;;;;;5161933;28;20112;-64
2021/07/10 05:21:13;;;;;;;4.57;1.90;;;22.60;71.40;;;;;;5166161;28;20418;-63
2021/07/10 05:23:46;;;;;;;3.10;1.70;;;22.60;71.40;;;;;;5165082;28;20057;-64
2021/07/10 05:26:18;;;;;;;2.85;1.83;;;22.60;71.40;;;;;;5164240;28;20042;-64
2021/07/10 05:28:51;;;;;;;3.70;1.83;;;22.60;71.40;;;;;;5166922;28;20045;-66
2021/07/10 05:31:23;;;;;;;4.20;1.80;;;22.60;71.40;;;;;;5163900;28;20054;-65
2021/07/10 05:33:57;;;;;;;2.22;1.92;;;22.60;71.40;;;;;;5166887;28;20057;-65
2021/07/10 05:36:29;;;;;;;2.90;1.98;;;22.60;71.50;;;;;;5166780;28;20065;-64
2021/07/10 05:39:02;;;;;;;1.58;1.48;;;22.60;71.40;;;;;;5156507;28;20042;-64
2021/07/10 05:41:34;;;;;;;4.93;2.03;;;22.60;71.40;;;;;;5162339;28;20046;-64
2021/07/10 05:44:07;;;;;;;1.70;1.60;;;22.60;71.60;;;;;;5180883;28;20132;-63
2021/07/10 05:46:39;;;;;;;2.95;1.67;;;22.60;71.60;;;;;;5163613;28;20057;-65
2021/07/10 05:49:12;;;;;;;3.03;1.70;;;22.60;71.70;;;;;;5161389;28;20417;-64
2021/07/10 05:51:44;;;;;;;2.35;1.90;;;22.60;71.80;;;;;;5163066;28;20049;-64
2021/07/10 05:54:16;;;;;;;2.10;1.63;;;22.60;71.80;;;;;;5160843;28;20054;-63
2021/07/10 05:56:50;;;;;;;9.48;1.80;;;22.60;71.90;;;;;;5161396;28;20053;-63
2021/07/10 05:59:22;;;;;;;9.10;2.30;;;22.60;71.90;;;;;;5162192;28;20057;-64
2021/07/10 06:01:55;;;;;;;6.07;1.92;;;22.60;72.00;;;;;;5157392;28;20048;-65
2021/07/10 06:04:27;;;;;;;3.13;2.10;;;22.60;72.00;;;;;;5158478;28;20445;-64
2021/07/10 06:07:00;;;;;;;4.13;1.95;;;22.60;72.10;;;;;;5156886;28;22044;-65
2021/07/10 06:09:33;;;;;;;4.38;1.75;;;22.60;72.20;;;;;;5162496;28;20041;-66
2021/07/10 06:12:06;;;;;;;6.32;1.67;;;22.60;72.20;;;;;;5155923;28;20050;-64
2021/07/10 06:14:39;;;;;;;8.07;1.83;;;22.60;72.20;;;;;;5161684;28;20046;-64
2021/07/10 06:17:11;;;;;;;4.82;1.70;;;22.60;72.30;;;;;;5157554;28;20054;-63
2021/07/10 06:19:44;;;;;;;6.60;1.75;;;22.60;72.30;;;;;;5160470;28;20046;-62
2021/07/10 06:22:16;;;;;;;5.75;2.35;;;22.60;72.50;;;;;;5168893;28;20054;-62
2021/07/10 06:24:49;;;;;;;11.45;2.28;;;22.60;72.50;;;;;;5157826;28;20053;-63
2021/07/10 06:27:21;;;;;;;6.57;2.10;;;22.60;72.60;;;;;;5169244;28;20080;-64
2021/07/10 06:29:53;;;;;;;4.25;2.08;;;22.60;72.60;;;;;;5166484;28;20494;-64
2021/07/10 06:32:26;;;;;;;3.63;2.10;;;22.60;72.60;;;;;;5165796;28;20058;-63
2021/07/10 06:34:59;;;;;;;5.77;2.03;;;22.60;72.70;;;;;;5165332;28;20046;-63
2021/07/10 06:37:31;;;;;;;12.35;2.50;;;22.60;72.80;;;;;;5159455;28;20509;-63
2021/07/10 06:40:06;;;;;;;6.47;2.30;;;22.60;73.00;;;;;;5155062;28;20049;-63
2021/07/10 06:42:39;;;;;;;21.73;3.35;;;22.60;73.10;;;;;;5158421;28;20446;-63
2021/07/10 06:45:15;;;;;;;19.52;3.08;;;22.70;73.40;;;;;;5157631;28;20514;-63
2021/07/10 06:47:47;;;;;;;9.25;2.70;;;22.70;73.00;;;;;;5153643;28;20061;-64
2021/07/10 06:50:21;;;;;;;20.50;2.95;;;22.70;72.90;;;;;;5148932;28;20061;-65
2021/07/10 06:52:53;;;;;;;10.20;2.70;;;22.70;73.10;;;;;;5154286;28;20053;-64
2021/07/10 06:55:26;;;;;;;9.95;2.75;;;22.70;72.90;;;;;;5149617;28;20081;-63
2021/07/10 06:57:58;;;;;;;16.42;3.15;;;22.70;72.80;;;;;;5151776;28;20414;-63
2021/07/10 07:00:31;;;;;;;9.48;2.80;;;22.70;72.70;;;;;;5147018;28;20429;-64
2021/07/10 07:03:03;;;;;;;6.95;3.13;;;22.70;72.70;;;;;;5144490;28;20250;-65
2021/07/10 07:05:36;;;;;;;11.75;3.75;;;22.70;72.70;;;;;;5152483;28;20049;-64
2021/07/10 07:08:08;;;;;;;10.32;3.50;;;22.70;72.70;;;;;;5148049;28;20045;-63
2021/07/10 07:10:40;;;;;;;8.43;3.72;;;22.70;72.80;;;;;;5157160;28;20053;-64
2021/07/10 07:13:13;;;;;;;6.50;3.40;;;22.70;72.70;;;;;;5157259;28;20049;-64
2021/07/10 07:15:45;;;;;;;5.93;3.50;;;22.70;72.70;;;;;;5151852;28;20073;-64
2021/07/10 07:18:18;;;;;;;7.93;3.45;;;22.70;72.70;;;;;;5150302;28;20072;-64
2021/07/10 07:21:09;;;;;;;9.95;3.92;;;22.70;72.70;;;;;;5158603;28;20723;-65
2021/07/10 07:23:41;;;;;;;8.95;3.50;;;22.70;72.80;;;;;;5152426;28;20050;-64
2021/07/10 07:26:14;;;;;;;6.55;3.53;;;22.70;72.90;;;;;;5159275;28;20050;-65
2021/07/10 07:28:46;;;;;;;4.45;3.60;;;22.70;72.80;;;;;;5155470;28;20357;-65
2021/07/10 07:31:19;;;;;;;4.77;3.63;;;22.70;73.30;;;;;;5149843;28;20046;-64
2021/07/10 07:33:52;;;;;;;7.22;4.07;;;22.70;72.70;;;;;;5145570;28;20054;-66
2021/07/10 07:36:24;;;;;;;8.18;4.40;;;22.70;72.80;;;;;;5155673;28;20053;-64
2021/07/10 07:38:56;;;;;;;4.93;4.28;;;22.70;72.90;;;;;;5153649;28;20049;-64
2021/07/10 07:41:29;;;;;;;5.07;3.85;;;22.70;72.90;;;;;;5155161;28;20057;-64
2021/07/10 07:44:03;;;;;;;6.32;4.15;;;22.70;72.80;;;;;;5150419;28;20066;-63
2021/07/10 07:46:35;;;;;;;6.78;4.40;;;22.70;72.70;;;;;;5151530;28;20061;-64
2021/07/10 07:49:08;;;;;;;8.43;4.57;;;22.80;72.60;;;;;;5157568;28;20298;-63
2021/07/10 07:51:41;;;;;;;5.15;4.28;;;22.70;72.50;;;;;;5155335;28;20721;-64
2021/07/10 07:54:13;;;;;;;6.00;4.77;;;22.70;72.50;;;;;;5155739;28;20073;-64
2021/07/10 07:56:46;;;;;;;4.97;4.20;;;22.70;72.50;;;;;;5159402;28;20449;-65
2021/07/10 07:59:18;;;;;;;8.18;4.15;;;22.70;72.40;;;;;;5157199;28;20053;-63
2021/07/10 08:01:51;;;;;;;12.95;5.07;;;22.70;72.50;;;;;;5148286;28;20046;-64
2021/07/10 08:04:24;;;;;;;7.82;4.13;;;22.70;72.50;;;;;;5144754;28;20053;-64
2021/07/10 08:06:56;;;;;;;13.13;5.53;;;22.80;72.50;;;;;;5159520;28;20046;-63
2021/07/10 08:09:29;;;;;;;16.87;5.13;;;22.80;72.70;;;;;;5152935;28;20793;-64
2021/07/10 08:12:02;;;;;;;8.02;4.68;;;22.80;72.70;;;;;;5167015;28;20529;-63
2021/07/10 08:14:35;;;;;;;9.95;4.95;;;22.80;72.90;;;;;;5154739;28;20046;-64
2021/07/10 08:17:07;;;;;;;9.53;4.40;;;22.90;72.90;;;;;;5148883;28;20045;-64
2021/07/10 08:19:40;;;;;;;9.93;4.57;;;22.90;72.90;;;;;;5148492;28;20509;-63
2021/07/10 08:22:12;;;;;;;22.98;5.22;;;22.90;72.80;;;;;;5146558;28;20297;-64
2021/07/10 08:24:45;;;;;;;14.60;5.43;;;22.90;72.80;;;;;;5135551;28;20234;-65
2021/07/10 08:27:17;;;;;;;16.63;5.28;;;22.90;72.90;;;;;;5151818;28;20054;-63
2021/07/10 08:29:50;;;;;;;11.63;5.18;;;22.90;73.00;;;;;;5150402;28;20064;-63
2021/07/10 08:32:23;;;;;;;13.25;4.45;;;22.90;73.10;;;;;;5158353;28;20057;-64
2021/07/10 08:34:55;;;;;;;13.68;4.80;;;23.00;73.10;;;;;;5158462;28;20049;-64
2021/07/10 08:37:28;;;;;;;14.25;5.35;;;23.00;73.20;;;;;;5160082;28;20042;-63
2021/07/10 08:40:00;;;;;;;20.10;5.15;;;23.00;73.20;;;;;;5156949;28;20041;-63
2021/07/10 08:42:33;;;;;;;14.23;4.70;;;23.00;73.20;;;;;;5152901;28;20046;-63
2021/07/10 08:45:09;;;;;;;15.10;5.03;;;23.00;73.20;;;;;;5156653;28;20050;-64
2021/07/10 08:47:44;;;;;;;14.75;5.22;;;23.00;73.20;;;;;;5168388;28;20057;-63
2021/07/10 08:50:20;;;;;;;11.25;4.85;;;23.10;73.30;;;;;;5148066;28;20064;-64
2021/07/10 08:52:54;;;;;;;7.88;4.30;;;23.10;73.30;;;;;;5158093;28;20053;-63
2021/07/10 08:55:27;;;;;;;8.10;4.18;;;23.10;73.20;;;;;;5153649;28;20669;-63
2021/07/10 08:58:03;;;;;;;14.27;4.32;;;23.10;73.20;;;;;;5149004;28;20050;-66
2021/07/10 09:00:38;;;;;;;8.30;4.32;;;23.10;73.20;;;;;;5149970;28;20046;-64
2021/07/10 09:03:11;;;;;;;9.68;4.60;;;23.10;73.20;;;;;;5152158;28;20065;-65
2021/07/10 09:05:44;;;;;;;7.30;3.93;;;23.10;73.10;;;;;;5146590;28;20050;-64
2021/07/10 09:09:48;;;;;;;15.05;4.70;;;23.10;73.50;;;;;;5236930;27;20459;-62
2021/07/10 09:12:31;;;;;;;17.08;4.82;;;23.10;73.40;;;;;;5245113;28;20500;-62
2021/07/10 09:15:19;;;;;;;16.58;5.22;;;23.20;73.40;;;;;;5247721;28;20052;-63
2021/07/10 09:17:53;;;;;;;14.43;4.70;;;23.20;73.30;;;;;;5245225;28;20411;-63
2021/07/10 09:20:27;;;;;;;;;;;23.10;73.40;;;;;;5246197;28;20070;-66
2021/07/10 09:22:59;;;;;;;19.38;6.53;;;23.20;73.50;;;;;;5250966;28;19931;-60
2021/07/10 09:25:33;;;;;;;15.07;6.28;;;23.20;73.40;;;;;;5254333;28;20056;-62
2021/07/10 09:28:05;;;;;;;19.30;5.03;;;23.30;73.30;;;;;;5248296;28;20040;-65
2021/07/10 09:30:40;;;;;;;10.18;5.22;;;23.40;73.10;;;;;;5234285;28;20044;-66
2021/07/10 09:33:19;;;;;;;15.02;5.18;;;23.40;73.30;;;;;;5239533;28;20047;-64
2021/07/10 09:35:53;;;;;;;8.55;5.50;;;23.40;72.80;;;;;;5241380;28;20048;-64
2021/07/10 09:38:34;;;;;;;13.35;5.32;;;23.40;72.70;;;;;;5239217;28;20059;-63
2021/07/10 09:41:11;;;;;;;9.63;5.05;;;23.40;72.70;;;;;;5235907;28;20550;-64
2021/07/10 09:43:43;;;;;;;9.43;5.03;;;23.40;72.40;;;;;;5242896;28;20290;-62
2021/07/10 09:46:25;;;;;;;7.45;5.43;;;23.50;72.40;;;;;;5243393;28;20052;-64
2021/07/10 09:48:58;;;;;;;5.63;4.97;;;23.50;72.60;;;;;;5247401;28;20467;-60
2021/07/10 09:51:31;;;;;;;10.90;5.93;;;23.40;72.30;;;;;;5238881;28;20574;-62
2021/07/10 09:54:11;;;;;;;16.65;5.35;;;23.40;72.20;;;;;;5241693;28;20051;-62
2021/07/10 09:57:08;;;;;;;10.18;5.43;;;23.50;72.40;;;;;;5237637;28;20052;-59
2021/07/10 09:59:52;;;;;;;8.13;5.57;;;23.50;72.30;;;;;;5236228;28;21396;-61
2021/07/10 10:02:29;;;;;;;11.63;5.53;;;23.50;72.40;;;;;;5240151;28;20056;-62
2021/07/10 10:05:06;;;;;;;8.55;5.35;;;23.50;72.30;;;;;;5246531;28;20052;-61
2021/07/10 10:07:54;;;;;;;14.00;5.47;;;23.50;72.30;;;;;;5249272;28;20060;-62
2021/07/10 10:10:39;;;;;;;8.27;5.47;;;23.50;72.20;;;;;;5246355;28;20052;-63
2021/07/10 10:13:13;;;;;;;8.57;5.45;;;23.50;72.10;;;;;;5245483;28;20079;-59
2021/07/10 10:15:52;;;;;;;15.77;5.72;;;23.50;72.10;;;;;;5241045;27;20461;-63
2021/07/10 10:18:25;;;;;;;7.47;5.60;;;23.50;72.10;;;;;;5242216;28;20051;-63
2021/07/10 10:20:57;;;;;;;8.45;4.60;;;23.50;72.00;;;;;;5228999;28;20047;-62
2021/07/10 10:23:30;;;;;;;8.67;4.67;;;23.50;72.10;;;;;;5224726;28;20500;-61
2021/07/10 10:26:04;;;;;;;7.88;5.18;;;23.50;72.10;;;;;;5222361;28;20047;-62
2021/07/10 10:28:37;;;;;;;9.32;4.85;;;23.60;72.20;;;;;;5228390;28;20075;-64
2021/07/10 10:31:10;;;;;;;7.35;5.25;;;23.50;72.40;;;;;;5218536;28;20048;-62
2021/07/10 10:33:45;;;;;;;11.35;5.25;;;23.50;72.40;;;;;;5214704;28;20576;-63
2021/07/10 10:36:22;;;;;;;8.20;5.32;;;23.50;72.60;;;;;;5218587;28;20502;-64
2021/07/10 10:38:55;;;;;;;8.82;4.90;;;23.50;72.60;;;;;;5227190;28;20460;-63
2021/07/10 10:41:29;;;;;;;5.35;4.47;;;23.50;72.60;;;;;;5214818;28;20512;-64
2021/07/10 10:44:02;;;;;;;10.82;4.60;;;23.50;72.30;;;;;;5214440;28;20087;-65
2021/07/10 10:46:53;;;;;;;12.02;4.95;;;23.50;72.20;;;;;;5221343;28;20052;-63
2021/07/10 10:49:37;;;;;;;7.03;5.15;;;23.50;72.00;;;;;;5219110;28;20044;-65
2021/07/10 10:52:18;;;;;;;7.72;5.53;;;23.40;72.00;;;;;;5220582;28;20060;-63
2021/07/10 10:54:54;;;;;;;6.97;5.20;;;23.40;71.90;;;;;;5212869;28;20053;-63
2021/07/10 10:57:51;;;;;;;7.00;4.85;;;23.40;72.00;;;;;;5210855;28;20047;-65
2021/07/10 11:00:24;;;;;;;9.23;4.90;;;23.40;71.80;;;;;;5207732;28;20052;-66
2021/07/10 11:03:08;;;;;;;5.57;4.53;;;23.40;71.90;;;;;;5216357;28;20051;-62
2021/07/10 11:05:44;;;;;;;5.82;4.68;;;23.40;71.80;;;;;;5224047;28;20044;-62
2021/07/10 11:08:26;;;;;;;7.05;4.30;;;23.40;71.90;;;;;;5222139;28;20056;-63
2021/07/10 11:10:59;;;;;;;7.30;5.00;;;23.40;71.80;;;;;;5219329;28;20653;-61
2021/07/10 11:13:37;;;;;;;10.10;4.85;;;23.40;71.80;;;;;;5226716;28;20052;-63
2021/07/10 11:16:16;;;;;;;14.57;5.30;;;23.50;72.60;;;;;;5219190;28;20102;-62
2021/07/10 11:18:54;;;;;;;14.00;5.10;;;23.50;72.00;;;;;;5228178;28;20045;-64
2021/07/10 11:21:34;;;;;;;11.73;4.70;;;23.50;72.20;;;;;;5229005;28;20059;-65
2021/07/10 11:24:20;;;;;;;10.50;4.40;;;23.50;72.10;;;;;;5235424;28;20639;-63
2021/07/10 11:26:55;;;;;;;9.57;4.80;;;23.50;72.10;;;;;;5214233;28;20052;-63
2021/07/10 11:29:31;;;;;;;20.75;5.38;;;23.60;72.10;;;;;;5199091;22;20501;-59
2021/07/10 11:32:13;;;;;;;17.60;5.40;;;23.60;72.30;;;;;;5154492;28;20054;-57
2021/07/10 11:34:57;;;;;;;17.25;5.45;;;23.60;72.40;;;;;;5157932;28;20053;-50
2021/07/10 11:37:44;;;;;;;11.60;5.00;;;23.60;72.60;;;;;;5162560;28;20057;-55
2021/07/10 11:40:16;;;;;;;15.98;5.25;;;23.60;72.70;;;;;;5164528;28;20049;-54
2021/07/10 11:42:51;;;;;;;14.95;5.57;;;23.60;72.80;;;;;;5139123;28;20326;-59
2021/07/10 11:45:26;;;;;;;10.13;5.10;;;23.60;72.90;;;;;;5162596;28;20069;-55
2021/07/10 11:48:16;;;;;;;16.23;5.15;;;23.60;73.00;;;;;;5156604;28;20053;-56
2021/07/10 11:50:58;;;;;;;13.20;4.90;;;23.70;73.00;;;;;;5161233;28;21327;-55
2021/07/10 11:53:31;;;;;;;11.02;4.70;;;23.70;72.80;;;;;;5163639;28;20544;-56
2021/07/10 11:56:04;;;;;;;16.00;5.00;;;23.70;72.80;;;;;;5167625;28;20049;-58
2021/07/10 11:58:37;;;;;;;13.90;4.50;;;23.70;73.00;;;;;;5150756;28;20049;-53
2021/07/10 12:01:13;;;;;;;17.92;5.20;;;23.70;73.40;;;;;;5161375;28;20054;-55
2021/07/10 12:03:46;;;;;;;16.23;4.90;;;23.70;73.60;;;;;;5155557;28;21023;-58
2021/07/10 12:06:21;;;;;;;18.35;4.28;;;23.70;73.80;;;;;;5160644;28;25678;-53
2021/07/10 12:09:00;;;;;;;11.63;5.10;;;23.70;73.70;;;;;;5163469;28;20046;-53
2021/07/10 12:11:33;;;;;;;13.02;4.78;;;23.70;73.50;;;;;;5157711;28;20212;-55
2021/07/10 12:14:08;;;;;;;10.13;4.23;;;23.70;73.40;;;;;;5165365;28;20546;-58
2021/07/10 12:16:40;;;;;;;15.30;4.53;;;23.70;73.40;;;;;;5155715;28;20220;-59
2021/07/10 12:19:14;;;;;;;19.03;4.87;;;23.70;73.30;;;;;;5149670;28;20084;-56
2021/07/10 12:21:47;;;;;;;8.10;4.72;;;23.60;73.20;;;;;;5165734;28;20394;-60
2021/07/10 12:24:22;;;;;;;14.03;4.70;;;23.60;73.10;;;;;;5167305;28;20046;-54
2021/07/10 12:26:54;;;;;;;9.70;4.28;;;23.60;73.00;;;;;;5168293;28;20304;-53
2021/07/10 12:29:26;;;;;;;7.10;4.10;;;23.60;73.00;;;;;;5163897;28;20056;-53
2021/07/10 12:31:59;;;;;;;6.10;4.32;;;23.60;73.00;;;;;;5169405;28;20041;-58
2021/07/10 12:34:31;;;;;;;9.67;4.13;;;23.60;72.90;;;;;;5167589;28;20038;-60
2021/07/10 12:37:04;;;;;;;13.85;4.45;;;23.60;72.90;;;;;;5163050;28;20066;-59
2021/07/10 12:39:40;;;;;;;11.43;4.30;;;23.60;72.80;;;;;;5163235;28;20738;-52
2021/07/10 12:42:13;;;;;;;8.25;3.97;;;23.60;72.70;;;;;;5147734;28;20045;-60
2021/07/10 12:44:47;;;;;;;11.77;4.47;;;23.60;73.30;;;;;;5153857;28;20525;-60
2021/07/10 12:47:21;;;;;;;;;;;23.60;72.60;;;;;;5159454;28;20053;-51
2021/07/10 12:49:57;;;;;;;8.93;3.92;;;23.60;72.50;;;;;;5162466;28;19929;-59
2021/07/10 12:52:46;;;;;;;8.40;4.18;;;23.60;72.60;;;;;;5140665;28;20060;-57
2021/07/10 12:55:34;;;;;;;9.32;4.20;;;23.60;72.60;;;;;;5164834;28;20057;-61
2021/07/10 12:58:06;;;;;;;10.77;4.15;;;23.60;72.50;;;;;;5141790;28;20054;-58
2021/07/10 13:00:39;;;;;;;18.02;4.50;;;23.60;72.50;;;;;;5159748;28;20053;-55
2021/07/10 13:03:16;;;;;;;7.72;4.35;;;23.60;72.50;;;;;;5157740;28;21399;-59
2021/07/10 13:05:50;;;;;;;7.47;4.30;;;23.60;72.50;;;;;;5154004;28;20054;-51
2021/07/10 13:08:24;;;;;;;9.48;3.83;;;23.60;72.50;;;;;;5158155;28;20126;-58
2021/07/10 13:10:59;;;;;;;7.75;4.03;;;23.60;72.50;;;;;;5158864;28;20045;-52
2021/07/10 13:13:38;;;;;;;7.05;3.65;;;23.60;72.40;;;;;;5160668;28;20639;-58
2021/07/10 13:16:17;;;;;;;8.93;4.38;;;23.60;73.10;;;;;;5155712;28;20577;-53
2021/07/10 13:18:52;;;;;;;7.50;4.22;;;23.60;72.40;;;;;;5158272;28;20121;-52
2021/07/10 13:21:29;;;;;;;7.22;3.58;;;23.60;72.30;;;;;;5159962;28;20317;-52
2021/07/10 13:24:09;;;;;;;8.18;4.10;;;23.60;72.30;;;;;;5154596;28;20056;-53